September 29, 2022

Time Code Weather Temp. Visibility Ceiling Wind METAR/SPECI
06:55
V
13 °C 10 km+ - 010° 010° 4 kt METAR EHHW 290455Z AUTO 01004KT 330V040 9999 NSC 13/07 Q0999
06:25
V
13 °C 10 km+ - 320° 320° 3 kt METAR EHHW 290425Z AUTO 32003KT 270V360 9999 NSC 13/07 Q0999
05:55
V
13 °C 10 km+ - Var Var 2 kt METAR EHHW 290355Z AUTO VRB02KT 9999 NSC 13/06 Q0999
05:25
V
13 °C 10 km+ - 310° 310° 4 kt METAR EHHW 290325Z AUTO 31004KT 9999 NSC 13/06 Q0999
04:55
V
13 °C 10 km+ - Var Var 2 kt METAR EHHW 290255Z AUTO VRB02KT 9999 NSC 13/06 Q0998
04:25
V
13 °C 10 km+ - 250° 250° 3 kt METAR EHHW 290225Z AUTO 25003KT 200V300 9999 NSC 13/06 Q0998
03:55
V
13 °C 10 km+ - Var Var 2 kt METAR EHHW 290155Z AUTO VRB02KT 9999 NSC 13/06 Q0998
03:25
V
12 °C 10 km+ - Var Var 2 kt METAR EHHW 290125Z AUTO VRB02KT 9999 NSC 12/06 Q0998
02:55
V
12 °C 10 km+ - Var Var 2 kt METAR EHHW 290055Z AUTO VRB02KT 9999 FEW001/// SCT044/// 12/07 Q0998
02:25
V
12 °C 10 km+ 4,100 ft 120° 120° 4 kt METAR EHHW 290025Z AUTO 12004KT 070V180 9999 -RA FEW001/// BKN041/// BKN046/// 12/06 Q0998
01:55
V
11 °C 10 km+ 3,300 ft 170° 170° 8 kt METAR EHHW 282355Z AUTO 17008KT 120V190 9999 -RA FEW001/// BKN033/// BKN041/// 11/07 Q0999
01:25
V
12 °C 10 km+ 3,100 ft Var Var 2 kt METAR EHHW 282325Z AUTO VRB02KT 9999 -RA FEW005/// SCT023/// BKN031/// 12/08 Q0998 REGRRA
00:55
V
12 °C 10 km+ 4,300 ft 260° 260° 8 kt METAR EHHW 282255Z AUTO 26008KT 9999 FEW020/// SCT029/// BKN043/// 12/06 Q0998
00:25
V
13 °C 10 km+ - 050° 050° 7 kt METAR EHHW 282225Z AUTO 05007KT 9999 FEW028/// 13/07 Q0998

September 28, 2022

Time Code Weather Temp. Visibility Ceiling Wind METAR/SPECI
23:55
V
13 °C 10 km+ - 030° 030° 7 kt METAR EHHW 282155Z AUTO 03007KT 360V070 9999 FEW026/// SCT040/// 13/06 Q0998
23:25
M
13 °C 10 km+ 2,600 ft 340° 340° 8 kt METAR EHHW 282125Z AUTO 34008KT 9999 BKN026/// BKN035/// BKN040/// 13/06 Q0998
22:55
M
13 °C 10 km+ 2,400 ft 310° 310° 9 kt METAR EHHW 282055Z AUTO 31009KT 280V350 9999 BKN024/// OVC027/// 13/06 Q0998
22:25
V
13 °C 10 km+ - 170° 170° 4 kt METAR EHHW 282025Z AUTO 17004KT 100V190 9999 SCT024/// 13/07 Q0997
21:55
V
13 °C 10 km+ - 170° 170° 3 kt METAR EHHW 281955Z AUTO 17003KT 120V220 9999 FEW044/// 13/06 Q0997
21:25
V
13 °C 10 km+ - Var Var 2 kt METAR EHHW 281925Z AUTO VRB02KT 9999 FEW044/// 13/06 Q0997
20:55
V
13 °C 10 km+ - 180° 180° 3 kt METAR EHHW 281855Z AUTO 18003KT 140V240 9999 NSC 13/06 Q0997
20:25
V
13 °C 10 km+ - Var Var 2 kt METAR EHHW 281825Z AUTO VRB02KT 9999 NCD 13/06 Q0997
19:55
V
13 °C 10 km+ - 200° 200° 3 kt METAR EHHW 281755Z AUTO 20003KT 9999 FEW031/// 13/06 Q0997
19:25
V
13 °C 10 km+ - 210° 210° 3 kt METAR EHHW 281725Z AUTO 21003KT 140V240 9999 FEW031/// 13/05 Q0997
18:55
V
14 °C 10 km+ - Var Var 2 kt METAR EHHW 281655Z AUTO VRB02KT 9999 FEW049/// 14/05 Q0997
18:25
V
14 °C 10 km+ - Var Var 2 kt METAR EHHW 281625Z AUTO VRB02KT 9999 NSC 14/05 Q0997
17:55
V
14 °C 10 km+ - Var Var 3 kt METAR EHHW 281555Z AUTO VRB03KT 9999 NSC 14/06 Q0996
17:25
V
13 °C 10 km+ - 220° 220° 3 kt METAR EHHW 281525Z AUTO 22003KT 190V280 9999 NSC 13/06 Q0996
16:55
V
14 °C 10 km+ - Var Var 1 kt METAR EHHW 281455Z AUTO VRB01KT 9999 FEW045/// 14/05 Q0996
16:25
V
13 °C 10 km+ 4,600 ft Var Var 2 kt METAR EHHW 281425Z AUTO VRB02KT 9999 FEW001/// SCT005/// BKN046/// 13/05 Q0996
15:55
M
13 °C 5 km 4,000 ft Var Var 2 kt METAR EHHW 281355Z AUTO VRB02KT 5000 SHGR -RA FEW001/// BKN040/// OVC048/// 13/06 Q0996
15:25
I
12 °C 3.1 km 4,200 ft 280° 280° 6 kt METAR EHHW 281325Z AUTO 28006KT 3100 SHRA FEW001/// SCT029/// BKN042/// 12/06 Q0996
14:55
V
13 °C 10 km+ 3,200 ft 290° 290° 9 kt METAR EHHW 281255Z AUTO 29009KT 250V340 9999 -RA FEW022/// SCT027/// BKN032/// 13/07 Q0996
14:25
V
13 °C 10 km+ 3,100 ft 320° 320° 8 kt METAR EHHW 281225Z AUTO 32008KT 9999 FEW022/// SCT028/// BKN031/// 13/07 Q0996
13:55
V
14 °C 10 km+ - 270° 270° 4 kt METAR EHHW 281155Z AUTO 27004KT 230V300 9999 FEW027/// 14/06 Q0996
13:25
V
14 °C 10 km+ - 260° 260° 4 kt METAR EHHW 281125Z AUTO 26004KT 210V300 9999 NSC 14/06 Q0996
12:55
V
14 °C 10 km+ - Var Var 2 kt METAR EHHW 281055Z AUTO VRB02KT 9999 SCT045/// 14/06 Q0996
12:25
V
14 °C 10 km+ - Var Var 2 kt METAR EHHW 281025Z AUTO VRB02KT 9999 FEW045/// 14/06 Q0995
11:55
V
13 °C 10 km+ - Var Var 1 kt METAR EHHW 280955Z AUTO VRB01KT 9999 NSC 13/06 Q0995
11:25
V
13 °C 10 km+ - Var Var 1 kt METAR EHHW 280925Z AUTO VRB01KT 9999 NSC 13/06 Q0995
10:55
V
13 °C 10 km+ - Var Var 2 kt METAR EHHW 280855Z AUTO VRB02KT 9999 NCD 13/06 Q0995
10:25
V
13 °C 10 km+ - Var Var 1 kt METAR EHHW 280825Z AUTO VRB01KT 9999 NSC 13/06 Q0995
09:55
V
12 °C 10 km+ - Var Var 2 kt METAR EHHW 280755Z AUTO VRB02KT 9999 FEW047/// 12/07 Q0995
09:25
V
12 °C 10 km+ 4,700 ft Var Var 2 kt METAR EHHW 280725Z AUTO VRB02KT 9999 FEW007/// SCT033/// BKN047/// 12/07 Q0994
08:55
V
11 °C 10 km+ 3,500 ft 110° 110° 4 kt METAR EHHW 280655Z AUTO 11004KT 060V190 9999 FEW007/// SCT017/// BKN035/// 11/07 Q0994 RERAGR
08:25
V
12 °C 10 km+ 4,000 ft 160° 160° 5 kt METAR EHHW 280625Z AUTO 16005KT 110V200 9999 FEW025/// SCT029/// BKN040/// 12/07 Q0994
07:55
M
11 °C 10 km+ 2,900 ft 160° 160° 5 kt METAR EHHW 280555Z AUTO 16005KT 090V210 9999 FEW012/// SCT024/// BKN029/// 11/08 Q0994
07:25
V
12 °C 10 km+ 3,800 ft Var Var 3 kt METAR EHHW 280525Z AUTO VRB03KT 9999 RA FEW006/// SCT024/// BKN038/// 12/07 Q0994
06:55
V
12 °C 10 km+ 3,700 ft Var Var 3 kt METAR EHHW 280455Z AUTO VRB03KT 9999 FEW006/// SCT027/// BKN037/// 12/08 Q0994
06:25
V
11 °C 10 km+ 3,800 ft 100° 100° 7 kt METAR EHHW 280425Z AUTO 10007KT 040V200 9999 FEW026/// SCT033/// BKN038/// 11/07 Q0994
05:55
V
12 °C 10 km+ - 080° 080° 7 kt METAR EHHW 280355Z AUTO 08007KT 010V150 9999 FEW027/// SCT040/// 12/07 Q0994
05:25
V
12 °C 10 km+ - Var Var 3 kt METAR EHHW 280325Z AUTO VRB03KT 9999 NSC 12/07 Q0994
04:55
V
12 °C 10 km+ - 030° 030° 3 kt METAR EHHW 280255Z AUTO 03003KT 360V090 9999 NSC 12/07 Q0994
04:25
V
12 °C 10 km+ - 330° 330° 4 kt METAR EHHW 280225Z AUTO 33004KT 290V360 9999 NSC 12/07 Q0993
03:55
V
11 °C 10 km+ - 330° 330° 4 kt METAR EHHW 280155Z AUTO 33004KT 300V360 9999 FEW002/// 11/06 Q0994
03:25
V
11 °C 10 km+ 4,500 ft 320° 320° 3 kt METAR EHHW 280125Z AUTO 32003KT 290V010 9999 FEW002/// SCT037/// BKN045/// 11/06 Q0994
02:55
M
11 °C 10 km+ 2,700 ft 020° 020° 8 kt METAR EHHW 280055Z AUTO 02008KT 330V040 9999 -RA FEW002/// SCT023/// BKN027/// 11/06 Q0994 RERA REDZ
02:25
V
12 °C 10 km+ - Var Var 2 kt METAR EHHW 280025Z AUTO VRB02KT 9999 FEW019/// SCT042/// 12/07 Q0994
01:55
V
12 °C 10 km+ - Var Var 1 kt METAR EHHW 272355Z AUTO VRB01KT 9999 FEW020/// SCT049/// 12/07 Q0994
01:25
V
11 °C 10 km+ - Var Var 1 kt METAR EHHW 272325Z AUTO VRB01KT 9999 FEW001/// 11/08 Q0994
00:55
V
11 °C 10 km+ - 160° 160° 3 kt METAR EHHW 272255Z AUTO 16003KT 120V200 9999 DZ FEW001/// SCT002/// 11/07 Q0994
00:25
M
11 °C 10 km+ 2,700 ft 170° 170° 3 kt METAR EHHW 272225Z AUTO 17003KT 080V210 9999 -RADZ FEW000/// SCT005/// BKN027/// 11/07 Q0994

September 27, 2022

Time Code Weather Temp. Visibility Ceiling Wind METAR/SPECI
23:55
M
11 °C 7 km 1,900 ft Var Var 3 kt METAR EHHW 272155Z AUTO VRB03KT 7000 -RA FEW000/// SCT010/// BKN019/// 11/08 Q0994 REGR RERA REDZ
23:25
V
12 °C 10 km+ 3,000 ft Var Var 1 kt METAR EHHW 272125Z AUTO VRB01KT 9999 SCT021/// SCT025/// BKN030/// 12/07 Q0994
22:55
V
12 °C 10 km+ - 220° 220° 4 kt METAR EHHW 272055Z AUTO 22004KT 190V280 9999 FEW021/// 12/07 Q0994
22:25
V
12 °C 10 km+ - 220° 220° 4 kt METAR EHHW 272025Z AUTO 22004KT 200V280 9999 FEW045/// 12/06 Q0994
21:55
V
11 °C 10 km+ - 230° 230° 4 kt METAR EHHW 271955Z AUTO 23004KT 190V270 9999 SCT046/// 11/06 Q0994
21:25
V
12 °C 10 km+ - 270° 270° 5 kt METAR EHHW 271925Z AUTO 27005KT 220V300 9999 FEW042/// SCT047/// 12/05 Q0994
20:55
V
11 °C 10 km+ - 280° 280° 5 kt METAR EHHW 271855Z AUTO 28005KT 240V310 9999 -DZ FEW021/// 11/06 Q0994
20:25
V
11 °C 10 km+ - 260° 260° 8 kt METAR EHHW 271825Z AUTO 26008KT 9999 FEW020/// 11/06 Q0994
19:55
V
12 °C 10 km+ - 280° 280° 6 kt METAR EHHW 271755Z AUTO 28006KT 240V310 9999 FEW001/// SCT048/// 12/07 Q0994
19:25
V
11 °C 10 km+ 3,900 ft 280° 280° 4 kt METAR EHHW 271725Z AUTO 28004KT 210V310 9999 -RA FEW000/// SCT035/// BKN039/// 11/07 Q0994
18:55
M
11 °C 6 km 3,700 ft 290° 290° 9 kt METAR EHHW 271655Z AUTO 29009KT 230V350 6000 -RA FEW001/// SCT024/// BKN037/// 11/07 Q0994
18:25
V
12 °C 10 km+ - 260° 260° 14 kt METAR EHHW 271625Z AUTO 26014KT 230V290 9999 FEW019/// SCT024/// 12/07 Q0994
17:55
V
12 °C 10 km+ - 290° 290° 10 kt METAR EHHW 271555Z AUTO 29010KT 9999 FEW024/// SCT037/// 12/06 Q0994
17:25
V
12 °C 10 km+ - 290° 290° 9 kt METAR EHHW 271525Z AUTO 29009KT 250V330 9999 FEW024/// 12/06 Q0994
16:55
V
12 °C 10 km+ - 290° 290° 9 kt METAR EHHW 271455Z AUTO 29009KT 9999 FEW018/// 12/05 Q0994
16:25
V
12 °C 10 km+ - 300° 300° 11 kt METAR EHHW 271425Z AUTO 30011KT 9999 FEW018/// 12/05 Q0994
15:55
V
12 °C 10 km+ 4,900 ft 290° 290° 12 kt METAR EHHW 271355Z AUTO 29012KT 9999 FEW016/// SCT040/// BKN049/// 12/06 Q0994
15:25
V
11 °C 10 km+ 4,100 ft 300° 300° 14 kt METAR EHHW 271325Z AUTO 30014KT 9999 -RA FEW001/// SCT022/// BKN041/// 11/06 Q0994
14:55
V
12 °C 10 km+ 3,600 ft 310° 310° 9 kt METAR EHHW 271255Z AUTO 31009KT 270V340 9999 -RA FEW001/// SCT026/// BKN036/// 12/07 Q0994 RERAGRRA
14:25
V
12 °C 10 km+ 3,600 ft 310° 310° 8 kt METAR EHHW 271225Z AUTO 31008KT 270V340 9999 FEW024/// SCT028/// BKN036/// 12/06 Q0994
13:55
M
12 °C 10 km+ 2,900 ft 310° 310° 10 kt METAR EHHW 271155Z AUTO 31010KT 280V350 9999 SCT023/// BKN029/// BKN035/// 12/06 Q0994
13:25
V
13 °C 10 km+ - 320° 320° 11 kt METAR EHHW 271125Z AUTO 32011KT 260V350 9999 FEW021/// SCT026/// 13/06 Q0994
12:55
V
12 °C 10 km+ - 310° 310° 10 kt METAR EHHW 271055Z AUTO 31010KT 280V340 9999 FEW026/// 12/07 Q0994
12:25
V
12 °C 10 km+ - 320° 320° 9 kt METAR EHHW 271025Z AUTO 32009KT 9999 FEW042/// 12/06 Q0994
11:55
V
12 °C 10 km+ - 320° 320° 11 kt METAR EHHW 270955Z AUTO 32011KT 280V340 9999 FEW001/// SCT042/// 12/06 Q0994
11:25
V
12 °C 10 km+ 3,900 ft 320° 320° 13 kt METAR EHHW 270925Z AUTO 32013KT 290V350 9999 FEW001/// SCT026/// BKN039/// 12/07 Q0994
10:55
V
12 °C 10 km+ 4,900 ft 360° 360° 13 kt METAR EHHW 270855Z AUTO 36013KT 9999 FEW001/// SCT025/// BKN049/// 12/07 Q0994
10:25
V
12 °C 10 km+ - 330° 330° 12 kt METAR EHHW 270825Z AUTO 33012KT 300V360 9999 FEW017/// SCT042/// 12/07 Q0994 REDZ
09:55
V
11 °C 10 km+ 3,100 ft 350° 350° 18 kt METAR EHHW 270755Z AUTO 35018KT 9999 FEW017/// SCT023/// BKN031/// 11/07 Q0994
09:25
V
13 °C 10 km+ 3,600 ft 330° 330° 15 kt METAR EHHW 270725Z AUTO 33015KT 290V010 9999 FEW023/// SCT027/// BKN036/// 13/06 Q0993
08:55
V
12 °C 10 km+ - 330° 330° 16 kt METAR EHHW 270655Z AUTO 33016KT 290V360 9999 FEW023/// SCT028/// 12/06 Q0993
08:25
V
12 °C 10 km+ - 330° 330° 16 kt METAR EHHW 270625Z AUTO 33016KT 290V350 9999 FEW025/// SCT028/// 12/06 Q0993
07:55
V
13 °C 10 km+ - 330° 330° 15 kt METAR EHHW 270555Z AUTO 33015KT 9999 FEW023/// SCT032/// 13/05 Q0993
07:25
V
12 °C 10 km+ 4,600 ft 320° 320° 17 kt METAR EHHW 270525Z AUTO 32017KT 290V350 9999 FEW018/// SCT034/// BKN046/// 12/05 Q0993
06:55
V
12 °C 10 km+ 4,700 ft 340° 340° 20 kt METAR EHHW 270455Z AUTO 34020KT 9999 FEW018/// SCT027/// BKN047/// 12/06 Q0992
06:25
V
12 °C 10 km+ 4,500 ft 330° 330° 17 kt METAR EHHW 270425Z AUTO 33017KT 290V350 9999 FEW020/// SCT027/// BKN045/// 12/07 Q0992
05:55
V
12 °C 10 km+ - 330° 330° 18 kt METAR EHHW 270355Z AUTO 33018KT 9999 FEW002/// SCT024/// 12/07 Q0992
05:25
V
12 °C 10 km+ - 330° 330° 17 kt METAR EHHW 270325Z AUTO 33017KT 290V350 9999 FEW002/// SCT032/// 12/06 Q0992
04:55
V
13 °C 10 km+ 4,700 ft 330° 330° 17 kt METAR EHHW 270255Z AUTO 33017KT 9999 FEW021/// SCT028/// BKN047/// 13/07 Q0992
04:25
V
13 °C 10 km+ 3,000 ft 330° 330° 20 kt METAR EHHW 270225Z AUTO 33020KT 9999 FEW021/// SCT025/// BKN030/// 13/08 Q0992
03:55
V
13 °C 10 km+ - 340° 340° 18 kt METAR EHHW 270155Z AUTO 34018KT 9999 FEW022/// 13/07 Q0993
03:25
V
12 °C 10 km+ 4,400 ft 320° 320° 22 kt METAR EHHW 270125Z AUTO 32022KT 9999 FEW016/// SCT024/// BKN044/// 12/07 Q0993
02:55
V
12 °C 10 km+ 3,200 ft 340° 340° 20 kt METAR EHHW 270055Z AUTO 34020KT 310V010 9999 FEW019/// SCT022/// BKN032/// 12/08 Q0993
02:25
V
13 °C 10 km+ 4,500 ft 330° 330° 19 kt METAR EHHW 270025Z AUTO 33019KT 9999 FEW021/// SCT030/// BKN045/// 13/07 Q0993
Older data

We and third parties follow your internet behavior on our website with cookies. If you continue, we assume you agree with our cookie policy. Learn more